Time,TemperatureF,DewpointF,PressureIn,WindDirection,WindDirectionDegrees,WindSpeedMPH,WindSpeedGustMPH,Humidity,HourlyPrecipIn,Conditions,Clouds,dailyrainin,SoftwareType,DateUTC
2013-05-01 10:46:00,77.0,68.5,29.80,SSW,198,6.9,7.0,75,0.00,CLR,,0.00,WeatherDisplay:10.37,2013-05-01 15:46:00,
2013-05-01 10:51:00,77.5,68.2,29.80,SE,125,4.6,4.6,73,0.00,CLR,,0.00,WeatherDisplay:10.37,2013-05-01 15:51:00,
2013-05-01 10:56:00,77.9,68.1,29.80,South,184,3.5,3.5,72,0.00,CLR,,0.00,WeatherDisplay:10.37,2013-05-01 15:56:00,
2013-05-01 11:01:00,78.4,68.2,29.80,ESE,108,8.1,8.1,71,0.00,CLR,,0.00,WeatherDisplay:10.37,2013-05-01 16:01:00,
2013-05-01 11:06:00,78.7,68.9,29.80,ESE,121,3.0,3.0,72,0.00,CLR,,0.00,WeatherDisplay:10.37,2013-05-01 16:06:00,
2013-05-01 11:11:00,78.9,68.3,29.80,South,186,5.8,5.8,70,0.00,CLR,,0.00,WeatherDisplay:10.37,2013-05-01 16:11:00,
2013-05-01 11:16:00,79.1,68.1,29.80,SSE,160,4.6,4.6,69,0.00,CLR,,0.00,WeatherDisplay:10.37,2013-05-01 16:16:00,
2013-05-01 11:21:00,79.3,68.7,29.80,East,99,3.5,3.5,70,0.00,CLR,,0.00,WeatherDisplay:10.37,2013-05-01 16:21:00,
2013-05-01 11:26:00,79.8,68.3,29.80,South,180,3.5,3.5,68,0.00,CLR,,0.00,WeatherDisplay:10.37,2013-05-01 16:26:00,
2013-05-01 11:31:00,80.3,67.9,29.80,SSW,205,5.8,5.8,66,0.00,CLR,,0.00,WeatherDisplay:10.37,2013-05-01 16:31:00,
2013-05-01 11:36:00,80.7,68.3,29.79,SE,129,6.9,6.9,66,0.00,CLR,,0.00,WeatherDisplay:10.37,2013-05-01 16:36:00,
2013-05-01 11:41:00,81.2,68.8,29.79,SE,139,3.5,3.5,66,0.00,CLR,,0.00,WeatherDisplay:10.37,2013-05-01 16:41:00,
2013-05-01 11:46:00,81.7,69.2,29.79,South,174,4.6,4.6,66,0.00,CLR,,0.00,WeatherDisplay:10.37,2013-05-01 16:46:00,
2013-05-01 11:51:00,82.1,68.3,29.79,SSW,207,3.5,3.5,63,0.00,CLR,,0.00,WeatherDisplay:10.37,2013-05-01 16:51:00,
2013-05-01 11:56:00,82.4,68.5,29.80,SE,134,3.5,3.5,63,0.00,CLR,,0.00,WeatherDisplay:10.37,2013-05-01 16:56:00,
2013-05-01 12:01:00,82.3,68.9,29.80,SE,136,2.3,2.3,64,0.00,CLR,,0.00,WeatherDisplay:10.37,2013-05-01 17:01:00,
2013-05-01 12:06:00,82.0,68.2,29.80,SE,126,3.5,3.5,63,0.00,CLR,,0.00,WeatherDisplay:10.37,2013-05-01 17:06:00,
2013-05-01 12:11:00,81.6,68.2,29.80,SSW,192,5.0,5.0,64,0.00,CLR,,0.00,WeatherDisplay:10.37,2013-05-01 17:11:00,
2013-05-01 12:16:00,81.3,67.5,29.80,SSE,154,5.0,5.0,63,0.00,CLR,,0.00,WeatherDisplay:10.37,2013-05-01 17:16:00,
2013-05-01 12:21:00,81.2,68.3,29.80,NNE,25,2.3,2.3,65,0.00,CLR,,0.00,WeatherDisplay:10.37,2013-05-01 17:21:00,
2013-05-01 12:26:00,81.3,68.4,29.80,West,280,3.5,3.5,65,0.00,CLR,,0.00,WeatherDisplay:10.37,2013-05-01 17:26:00,
2013-05-01 12:31:00,81.8,68.4,29.80,SE,144,3.5,3.5,64,0.00,CLR,,0.00,WeatherDisplay:10.37,2013-05-01 17:31:00,
2013-05-01 12:36:00,82.5,68.6,29.79,SE,143,4.6,4.6,63,0.00,CLR,,0.00,WeatherDisplay:10.37,2013-05-01 17:36:00,
2013-05-01 12:41:00,82.6,68.3,29.79,SE,137,2.3,2.3,62,0.00,CLR,,0.00,WeatherDisplay:10.37,2013-05-01 17:41:00,
2013-05-01 12:46:00,82.6,68.3,29.80,ESE,110,5.8,5.8,62,0.00,CLR,,0.00,WeatherDisplay:10.37,2013-05-01 17:46:00,
2013-05-01 12:51:00,82.5,68.6,29.80,SSW,196,3.5,3.5,63,0.00,CLR,,0.00,WeatherDisplay:10.37,2013-05-01 17:51:00,
2013-05-01 12:56:00,82.3,68.0,29.80,SSE,149,3.5,3.5,62,0.00,CLR,,0.00,WeatherDisplay:10.37,2013-05-01 17:56:00,
2013-05-01 13:15:00,82.0,68.2,29.79,East,86,4.6,4.6,63,0.00,CLR,,0.00,WeatherDisplay:10.37,2013-05-01 18:15:00,
2013-05-01 13:20:00,82.3,68.0,29.79,ESE,115,5.0,5.0,62,0.00,CLR,,0.00,WeatherDisplay:10.37,2013-05-01 18:20:00,
2013-05-01 13:25:00,82.5,67.7,29.79,South,178,5.8,5.8,61,0.00,CLR,,0.00,WeatherDisplay:10.37,2013-05-01 18:25:00,
2013-05-01 13:30:00,82.7,68.4,29.79,SSW,197,2.3,0.0,62,0.00,CLR,,0.00,WeatherDisplay:10.37,2013-05-01 18:30:00,
2013-05-01 13:35:00,82.9,67.6,29.79,SE,135,5.8,5.8,60,0.00,CLR,,0.00,WeatherDisplay:10.37,2013-05-01 18:35:00,
2013-05-01 13:40:00,82.9,68.1,29.79,South,190,3.5,3.5,61,0.00,CLR,,0.00,WeatherDisplay:10.37,2013-05-01 18:40:00,
2013-05-01 13:45:00,83.2,67.9,29.79,SSW,199,3.5,3.5,60,0.00,CLR,,0.00,WeatherDisplay:10.37,2013-05-01 18:45:00,
2013-05-01 13:50:00,83.2,68.3,29.79,East,82,3.0,3.0,61,0.00,CLR,,0.00,WeatherDisplay:10.37,2013-05-01 18:50:00,
2013-05-01 13:55:00,83.2,67.9,29.79,SW,216,3.5,3.5,60,0.00,CLR,,0.00,WeatherDisplay:10.37,2013-05-01 18:55:00,
2013-05-01 14:00:00,83.4,68.1,29.79,SE,133,3.5,3.5,60,0.00,CLR,,0.00,WeatherDisplay:10.37,2013-05-01 19:00:00,
2013-05-01 14:05:00,83.7,67.8,29.79,SW,214,3.5,3.5,59,0.00,CLR,,0.00,WeatherDisplay:10.37,2013-05-01 19:05:00,
2013-05-01 14:10:00,83.9,68.0,29.79,SSE,150,3.0,3.0,59,0.00,CLR,,0.00,WeatherDisplay:10.37,2013-05-01 19:10:00,
2013-05-01 14:15:00,84.0,67.6,29.79,SSW,207,6.9,6.9,58,0.00,CLR,,0.00,WeatherDisplay:10.37,2013-05-01 19:15:00,
2013-05-01 14:20:00,84.1,68.2,29.79,South,173,5.8,5.8,59,0.00,CLR,,0.00,WeatherDisplay:10.37,2013-05-01 19:20:00,
2013-05-01 14:25:00,84.1,67.2,29.79,NE,54,1.2,1.2,57,0.00,CLR,,0.00,WeatherDisplay:10.37,2013-05-01 19:25:00,
2013-05-01 14:30:00,84.2,68.3,29.79,ESE,104,1.2,1.2,59,0.00,CLR,,0.00,WeatherDisplay:10.37,2013-05-01 19:30:00,
2013-05-01 14:35:00,84.5,68.1,29.79,SSE,148,4.6,4.6,58,0.00,CLR,,0.00,WeatherDisplay:10.37,2013-05-01 19:35:00,
2013-05-01 14:40:00,84.6,67.7,29.79,SSE,167,0.0,0.0,57,0.00,CLR,,0.00,WeatherDisplay:10.37,2013-05-01 19:40:00,
2013-05-01 14:45:00,84.8,68.9,29.79,ESE,116,2.3,0.0,59,0.00,CLR,,0.00,WeatherDisplay:10.37,2013-05-01 19:45:00,
2013-05-01 14:50:00,85.2,67.7,29.79,South,175,4.0,4.0,56,0.00,CLR,,0.00,WeatherDisplay:10.37,2013-05-01 19:50:00,
2013-05-01 14:55:00,85.3,67.8,29.78,SSE,158,1.2,0.0,56,0.00,CLR,,0.00,WeatherDisplay:10.37,2013-05-01 19:55:00,
2013-05-01 15:00:00,85.3,68.3,29.78,East,92,1.2,1.2,57,0.00,CLR,,0.00,WeatherDisplay:10.37,2013-05-01 20:00:00,
2013-05-01 15:05:00,85.4,67.4,29.78,SSW,198,1.2,0.0,55,0.00,CLR,,0.00,WeatherDisplay:10.37,2013-05-01 20:05:00,
2013-05-01 15:10:00,85.2,67.7,29.79,SSE,149,4.6,4.6,56,0.00,CLR,,0.00,WeatherDisplay:10.37,2013-05-01 20:10:00,
2013-05-01 15:15:00,85.1,67.6,29.78,ESE,105,2.3,2.3,56,0.00,CLR,,0.00,WeatherDisplay:10.37,2013-05-01 20:15:00,
2013-05-01 15:20:00,85.1,67.6,29.78,North,5,1.2,0.0,56,0.00,CLR,,0.00,WeatherDisplay:10.37,2013-05-01 20:20:00,
2013-05-01 15:25:00,85.4,68.4,29.78,ESE,104,4.6,4.6,57,0.00,CLR,,0.00,WeatherDisplay:10.37,2013-05-01 20:25:00,
2013-05-01 15:30:00,85.5,68.0,29.78,SSW,209,4.6,4.6,56,0.00,CLR,,0.00,WeatherDisplay:10.37,2013-05-01 20:30:00,
2013-05-01 15:35:00,85.4,68.4,29.78,East,101,3.5,3.5,57,0.00,CLR,,0.00,WeatherDisplay:10.37,2013-05-01 20:35:00,
2013-05-01 15:40:00,85.3,68.3,29.78,ESE,105,0.0,0.0,57,0.00,CLR,,0.00,WeatherDisplay:10.37,2013-05-01 20:40:00,
2013-05-01 15:45:00,85.3,68.3,29.78,East,90,2.0,2.0,57,0.00,CLR,,0.00,WeatherDisplay:10.37,2013-05-01 20:45:00,
2013-05-01 15:50:00,85.3,68.3,29.77,East,97,1.2,0.0,57,0.00,CLR,,0.00,WeatherDisplay:10.37,2013-05-01 20:50:00,
2013-05-01 15:55:00,85.3,68.8,29.77,SE,146,2.0,2.0,58,0.00,CLR,,0.00,WeatherDisplay:10.37,2013-05-01 20:55:00,
2013-05-01 16:00:00,85.6,68.1,29.77,ESE,111,2.3,2.3,56,0.00,CLR,,0.00,WeatherDisplay:10.37,2013-05-01 21:00:00,
2013-05-01 16:05:00,85.6,67.6,29.77,SE,125,1.2,0.0,55,0.00,CLR,,0.00,WeatherDisplay:10.37,2013-05-01 21:05:00,
2013-05-01 16:10:00,85.6,68.1,29.77,SE,138,1.2,1.2,56,0.00,CLR,,0.00,WeatherDisplay:10.37,2013-05-01 21:10:00,
2013-05-01 16:15:00,85.6,67.6,29.77,NNE,18,0.0,0.0,55,0.00,CLR,,0.00,WeatherDisplay:10.37,2013-05-01 21:15:00,
2013-05-01 16:20:00,85.6,67.6,29.77,NW,304,3.0,3.0,55,0.00,CLR,,0.00,WeatherDisplay:10.37,2013-05-01 21:20:00,
2013-05-01 16:25:00,85.6,67.6,29.77,SE,136,3.5,3.5,55,0.00,CLR,,0.00,WeatherDisplay:10.37,2013-05-01 21:25:00,
2013-05-01 16:30:00,85.5,67.5,29.77,SE,125,2.3,2.3,55,0.00,CLR,,0.00,WeatherDisplay:10.37,2013-05-01 21:30:00,
2013-05-01 16:35:00,85.7,67.7,29.76,SSE,157,1.2,1.2,55,0.00,CLR,,0.00,WeatherDisplay:10.37,2013-05-01 21:35:00,
2013-05-01 16:40:00,85.8,67.8,29.76,SSE,156,3.5,3.5,55,0.00,CLR,,0.00,WeatherDisplay:10.37,2013-05-01 21:40:00,
2013-05-01 16:45:00,86.1,68.0,29.76,SSE,155,3.5,3.5,55,0.00,CLR,,0.00,WeatherDisplay:10.37,2013-05-01 21:45:00,
2013-05-01 16:50:00,86.3,67.7,29.76,SSE,156,0.0,0.0,54,0.00,CLR,,0.00,WeatherDisplay:10.37,2013-05-01 21:50:00,
2013-05-01 16:55:00,86.4,67.8,29.76,East,86,2.3,2.3,54,0.00,CLR,,0.00,WeatherDisplay:10.37,2013-05-01 21:55:00,
2013-05-01 17:00:00,86.3,68.2,29.76,SE,131,1.2,1.2,55,0.00,CLR,,0.00,WeatherDisplay:10.37,2013-05-01 22:00:00,
2013-05-01 17:05:00,86.2,68.1,29.76,ENE,71,2.3,2.3,55,0.00,CLR,,0.00,WeatherDisplay:10.37,2013-05-01 22:05:00,
2013-05-01 17:10:00,85.9,67.3,29.76,South,172,3.5,3.5,54,0.00,CLR,,0.00,WeatherDisplay:10.37,2013-05-01 22:10:00,
2013-05-01 17:15:00,85.8,67.8,29.76,South,173,3.5,3.5,55,0.00,CLR,,0.00,WeatherDisplay:10.37,2013-05-01 22:15:00,
2013-05-01 17:20:00,85.8,67.8,29.76,East,79,2.3,2.3,55,0.00,CLR,,0.00,WeatherDisplay:10.37,2013-05-01 22:20:00,
2013-05-01 17:25:00,85.8,67.8,29.76,South,185,3.5,3.5,55,0.00,CLR,,0.00,WeatherDisplay:10.37,2013-05-01 22:25:00,
2013-05-01 17:30:00,85.8,67.8,29.76,WSW,246,1.2,1.2,55,0.00,CLR,,0.00,WeatherDisplay:10.37,2013-05-01 22:30:00,
2013-05-01 17:35:00,85.6,68.1,29.76,South,186,4.0,4.0,56,0.00,CLR,,0.00,WeatherDisplay:10.37,2013-05-01 22:35:00,
2013-05-01 17:40:00,85.4,67.4,29.76,South,186,6.9,6.9,55,0.00,CLR,,0.00,WeatherDisplay:10.37,2013-05-01 22:40:00,
2013-05-01 17:45:00,85.4,66.9,29.75,SSE,167,4.6,4.6,54,0.00,CLR,,0.00,WeatherDisplay:10.37,2013-05-01 22:45:00,
2013-05-01 17:50:00,85.4,67.9,29.75,South,190,1.2,1.2,56,0.00,CLR,,0.00,WeatherDisplay:10.37,2013-05-01 22:50:00,
2013-05-01 17:55:00,85.5,67.5,29.75,ESE,109,4.6,4.6,55,0.00,CLR,,0.00,WeatherDisplay:10.37,2013-05-01 22:55:00,
2013-05-01 18:00:00,85.5,67.5,29.75,West,260,2.3,2.3,55,0.00,CLR,,0.00,WeatherDisplay:10.37,2013-05-01 23:00:00,
2013-05-01 18:05:00,85.5,67.5,29.75,SSW,201,5.0,5.0,55,0.00,CLR,,0.00,WeatherDisplay:10.37,2013-05-01 23:05:00,
2013-05-01 18:10:00,85.5,67.5,29.75,South,178,3.5,3.5,55,0.00,CLR,,0.00,WeatherDisplay:10.37,2013-05-01 23:10:00,
2013-05-01 18:15:00,85.4,67.9,29.75,SW,223,3.5,3.5,56,0.00,CLR,,0.00,WeatherDisplay:10.37,2013-05-01 23:15:00,
2013-05-01 18:20:00,85.4,67.4,29.75,SSW,205,4.6,4.6,55,0.00,CLR,,0.00,WeatherDisplay:10.37,2013-05-01 23:20:00,
2013-05-01 18:25:00,85.4,67.9,29.75,SW,224,4.6,4.6,56,0.00,CLR,,0.00,WeatherDisplay:10.37,2013-05-01 23:25:00,
2013-05-01 18:30:00,85.4,67.9,29.75,SSE,165,3.5,3.5,56,0.00,CLR,,0.00,WeatherDisplay:10.37,2013-05-01 23:30:00,
2013-05-01 18:35:00,85.4,68.4,29.75,ENE,73,1.2,1.2,57,0.00,CLR,,0.00,WeatherDisplay:10.37,2013-05-01 23:35:00,
2013-05-01 18:40:00,85.3,67.8,29.75,SSE,154,4.6,4.6,56,0.00,CLR,,0.00,WeatherDisplay:10.37,2013-05-01 23:40:00,
2013-05-01 18:45:00,85.3,67.8,29.75,ENE,78,3.5,3.5,56,0.00,CLR,,0.00,WeatherDisplay:10.37,2013-05-01 23:45:00,
2013-05-01 18:50:00,85.1,67.6,29.75,SE,145,3.5,3.5,56,0.00,CLR,,0.00,WeatherDisplay:10.37,2013-05-01 23:50:00,
2013-05-01 18:55:00,85.0,67.5,29.75,SE,144,0.0,0.1,56,0.00,CLR,,0.00,WeatherDisplay:10.37,2013-05-01 23:55:00,
2013-05-01 19:00:00,84.8,67.9,29.74,ESE,110,0.0,0.0,57,0.00,CLR,,0.00,WeatherDisplay:10.37,2013-05-02 00:00:00,
2013-05-01 19:05:00,84.7,67.8,29.74,East,86,4.6,4.6,57,0.00,CLR,,0.00,WeatherDisplay:10.37,2013-05-02 00:05:00,
2013-05-01 19:10:00,84.4,68.0,29.74,ESE,105,1.2,1.2,58,0.00,CLR,,0.00,WeatherDisplay:10.37,2013-05-02 00:10:00,
2013-05-01 19:15:00,84.1,67.7,29.74,ESE,113,1.2,0.0,58,0.00,CLR,,0.00,WeatherDisplay:10.37,2013-05-02 00:15:00,
2013-05-01 19:20:00,83.8,67.9,29.75,SE,142,1.2,0.0,59,0.00,CLR,,0.00,WeatherDisplay:10.37,2013-05-02 00:20:00,
2013-05-01 19:25:00,83.5,68.2,29.75,East,85,0.0,0.0,60,0.00,CLR,,0.00,WeatherDisplay:10.37,2013-05-02 00:25:00,
2013-05-01 19:30:00,83.2,67.9,29.75,ENE,68,2.3,0.0,60,0.00,CLR,,0.00,WeatherDisplay:10.37,2013-05-02 00:30:00,
2013-05-01 19:35:00,82.9,68.1,29.75,East,98,0.0,0.1,61,0.00,CLR,,0.00,WeatherDisplay:10.37,2013-05-02 00:35:00,
2013-05-01 19:40:00,82.7,68.4,29.75,ESE,118,0.0,0.0,62,0.00,CLR,,0.00,WeatherDisplay:10.37,2013-05-02 00:40:00,
2013-05-01 19:45:00,82.4,68.1,29.76,ESE,118,0.0,0.0,62,0.00,CLR,,0.00,WeatherDisplay:10.37,2013-05-02 00:45:00,
2013-05-01 19:50:00,82.1,67.8,29.76,ESE,118,0.0,0.0,62,0.00,CLR,,0.00,WeatherDisplay:10.37,2013-05-02 00:50:00,
2013-05-01 19:55:00,81.8,68.0,29.77,ESE,118,0.0,0.0,63,0.00,CLR,,0.00,WeatherDisplay:10.37,2013-05-02 00:55:00,
2013-05-01 20:00:00,81.5,67.7,29.77,ESE,118,0.0,0.0,63,0.00,CLR,,0.00,WeatherDisplay:10.37,2013-05-02 01:00:00,
2013-05-01 20:05:00,81.2,67.9,29.77,SE,142,2.3,2.3,64,0.00,CLR,,0.00,WeatherDisplay:10.37,2013-05-02 01:05:00,
2013-05-01 20:10:00,80.9,67.6,29.77,SSE,150,2.3,2.3,64,0.00,CLR,,0.00,WeatherDisplay:10.37,2013-05-02 01:10:00,
2013-05-01 20:15:00,80.6,67.7,29.78,ESE,121,1.2,1.2,65,0.00,CLR,,0.00,WeatherDisplay:10.37,2013-05-02 01:15:00,
2013-05-01 20:20:00,80.5,68.1,29.78,East,82,2.3,2.3,66,0.00,CLR,,0.00,WeatherDisplay:10.37,2013-05-02 01:20:00,
2013-05-01 20:25:00,80.4,68.0,29.78,East,84,0.0,0.0,66,0.00,CLR,,0.00,WeatherDisplay:10.37,2013-05-02 01:25:00,
2013-05-01 20:30:00,80.2,67.8,29.78,ENE,69,2.3,0.0,66,0.00,CLR,,0.00,WeatherDisplay:10.37,2013-05-02 01:30:00,
2013-05-01 20:35:00,80.2,67.8,29.78,NE,50,1.2,0.0,66,0.00,CLR,,0.00,WeatherDisplay:10.37,2013-05-02 01:35:00,
2013-05-01 20:40:00,80.0,67.6,29.78,ENE,65,2.3,2.3,66,0.00,CLR,,0.00,WeatherDisplay:10.37,2013-05-02 01:40:00,
2013-05-01 20:45:00,80.0,67.6,29.78,East,82,1.2,1.2,66,0.00,CLR,,0.00,WeatherDisplay:10.37,2013-05-02 01:45:00,
2013-05-01 20:50:00,79.9,67.5,29.78,NE,41,3.5,3.5,66,0.00,CLR,,0.00,WeatherDisplay:10.37,2013-05-02 01:50:00,
2013-05-01 20:55:00,79.8,67.4,29.78,ENE,76,0.0,0.0,66,0.00,CLR,,0.00,WeatherDisplay:10.37,2013-05-02 01:55:00,
2013-05-01 21:00:00,79.7,67.3,29.78,ENE,59,0.0,0.0,66,0.00,CLR,,0.00,WeatherDisplay:10.37,2013-05-02 02:00:00,
2013-05-01 21:05:00,79.6,67.2,29.79,NE,50,1.2,1.2,66,0.00,CLR,,0.00,WeatherDisplay:10.37,2013-05-02 02:05:00,
2013-05-01 21:10:00,79.4,67.0,29.79,South,188,1.2,1.2,66,0.00,CLR,,0.00,WeatherDisplay:10.37,2013-05-02 02:10:00,
2013-05-01 21:15:00,79.2,67.3,29.80,SE,136,0.0,0.0,67,0.00,CLR,,0.00,WeatherDisplay:10.37,2013-05-02 02:15:00,
2013-05-01 21:20:00,78.9,67.0,29.80,ENE,61,2.3,2.3,67,0.00,CLR,,0.00,WeatherDisplay:10.37,2013-05-02 02:20:00,
2013-05-01 21:25:00,78.7,67.2,29.80,East,90,1.2,1.2,68,0.00,CLR,,0.00,WeatherDisplay:10.37,2013-05-02 02:25:00,
2013-05-01 21:30:00,78.5,67.1,29.80,ESE,119,2.3,2.3,68,0.00,CLR,,0.00,WeatherDisplay:10.37,2013-05-02 02:30:00,
2013-05-01 21:35:00,78.3,66.9,29.80,NNE,26,0.0,0.0,68,0.00,CLR,,0.00,WeatherDisplay:10.37,2013-05-02 02:35:00,
2013-05-01 21:40:00,78.2,66.8,29.81,ESE,110,1.2,1.2,68,0.00,CLR,,0.00,WeatherDisplay:10.37,2013-05-02 02:40:00,
2013-05-01 21:45:00,78.0,67.0,29.81,ENE,71,2.3,0.0,69,0.00,CLR,,0.00,WeatherDisplay:10.37,2013-05-02 02:45:00,
2013-05-01 21:50:00,77.8,66.8,29.82,WNW,283,1.0,0.0,69,0.00,CLR,,0.00,WeatherDisplay:10.37,2013-05-02 02:50:00,
2013-05-01 21:55:00,77.8,67.2,29.82,ESE,108,0.0,0.0,70,0.00,CLR,,0.00,WeatherDisplay:10.37,2013-05-02 02:55:00,
2013-05-01 22:00:00,77.6,67.0,29.83,ENE,72,0.0,0.1,70,0.00,CLR,,0.00,WeatherDisplay:10.37,2013-05-02 03:00:00,
2013-05-01 22:05:00,77.5,66.9,29.84,East,86,0.0,0.0,70,0.00,CLR,,0.00,WeatherDisplay:10.37,2013-05-02 03:05:00,
2013-05-01 22:10:00,77.4,67.3,29.84,East,88,1.2,1.2,71,0.00,CLR,,0.00,WeatherDisplay:10.37,2013-05-02 03:10:00,
2013-05-01 22:15:00,77.3,67.2,29.84,East,94,2.3,2.3,71,0.00,CLR,,0.00,WeatherDisplay:10.37,2013-05-02 03:15:00,
2013-05-01 22:20:00,77.3,67.2,29.84,East,94,1.2,1.2,71,0.00,CLR,,0.00,WeatherDisplay:10.37,2013-05-02 03:20:00,
2013-05-01 22:25:00,77.3,67.6,29.84,SE,144,1.2,1.2,72,0.00,CLR,,0.00,WeatherDisplay:10.37,2013-05-02 03:25:00,
2013-05-01 22:30:00,77.2,67.1,29.84,ENE,73,0.0,0.0,71,0.00,CLR,,0.00,WeatherDisplay:10.37,2013-05-02 03:30:00,
2013-05-01 22:35:00,77.3,67.6,29.85,SE,140,0.0,0.0,72,0.00,CLR,,0.00,WeatherDisplay:10.37,2013-05-02 03:35:00,
2013-05-01 22:40:00,77.3,67.2,29.85,ENE,74,3.5,0.0,71,0.00,CLR,,0.00,WeatherDisplay:10.37,2013-05-02 03:40:00,
2013-05-01 22:45:00,77.3,67.6,29.85,SE,137,2.3,2.3,72,0.00,CLR,,0.00,WeatherDisplay:10.37,2013-05-02 03:45:00,
2013-05-01 22:50:00,77.2,67.5,29.85,East,84,1.2,0.0,72,0.00,CLR,,0.00,WeatherDisplay:10.37,2013-05-02 03:50:00,
2013-05-01 22:55:00,77.2,67.5,29.85,North,10,3.5,3.5,72,0.00,CLR,,0.00,WeatherDisplay:10.37,2013-05-02 03:55:00,
2013-05-01 23:00:00,77.1,67.4,29.85,ENE,78,2.3,2.3,72,0.00,CLR,,0.00,WeatherDisplay:10.37,2013-05-02 04:00:00,
2013-05-01 23:01:00,77.1,67.4,29.85,ENE,78,2.3,2.3,72,0.00,CLR,,0.00,WeatherDisplay:10.37,2013-05-02 04:01:00,
2013-05-01 23:06:00,77.0,67.3,29.86,NNE,30,2.3,2.3,72,0.00,CLR,,0.00,WeatherDisplay:10.37,2013-05-02 04:06:00,
2013-05-01 23:11:00,76.9,67.2,29.86,East,82,1.0,1.0,72,0.00,CLR,,0.00,WeatherDisplay:10.37,2013-05-02 04:11:00,
2013-05-01 23:16:00,76.9,67.2,29.86,East,80,1.2,1.2,72,0.00,CLR,,0.00,WeatherDisplay:10.37,2013-05-02 04:16:00,
2013-05-01 23:21:00,76.9,67.2,29.86,NE,53,2.3,2.3,72,0.00,CLR,,0.00,WeatherDisplay:10.37,2013-05-02 04:21:00,
2013-05-01 23:26:00,76.9,67.6,29.87,NE,53,0.0,0.0,73,0.00,CLR,,0.00,WeatherDisplay:10.37,2013-05-02 04:26:00,
2013-05-01 23:31:00,76.8,67.5,29.87,East,93,1.2,0.0,73,0.00,CLR,,0.00,WeatherDisplay:10.37,2013-05-02 04:31:00,
2013-05-01 23:36:00,76.8,67.5,29.87,ENE,57,1.2,1.2,73,0.00,CLR,,0.00,WeatherDisplay:10.37,2013-05-02 04:36:00,
2013-05-01 23:41:00,76.7,67.4,29.87,East,85,3.5,3.5,73,0.00,CLR,,0.00,WeatherDisplay:10.37,2013-05-02 04:41:00,
2013-05-01 23:46:00,76.7,67.4,29.87,ENE,74,0.0,0.1,73,0.00,CLR,,0.00,WeatherDisplay:10.37,2013-05-02 04:46:00,
2013-05-01 23:51:00,76.6,67.3,29.87,East,101,3.5,3.5,73,0.00,CLR,,0.00,WeatherDisplay:10.37,2013-05-02 04:51:00,
2013-05-01 23:56:00,76.5,67.2,29.88,ESE,108,0.0,0.1,73,0.00,CLR,,0.00,WeatherDisplay:10.37,2013-05-02 04:56:00,